Date,TemperatureHighF,TemperatureAvgF,TemperatureLowF,DewpointHighF,DewpointAvgF,DewpointLowF,HumidityHigh,HumidityAvg,HumidityLow,PressureMaxIn,PressureMinIn,WindSpeedMaxMPH,WindSpeedAvgMPH,GustSpeedMaxMPH,PrecipitationSumIn
2013-1-1,38,32,19,35,21,7,95,66,46,29.89,29.66,20,7,0,0.17
2013-1-2,31,21,11,23,11,-1,98,65,51,30.06,29.85,16,6,0,0.01
2013-1-3,26,16,5,22,2,-5,98,56,29,30.10,29.95,16,4,0,0.00
2013-1-4,41,31,20,36,26,16,98,84,52,29.94,29.76,14,3,0,0.01
2013-1-5,43,35,26,36,27,18,98,75,39,30.21,29.80,15,4,0,0.00
2013-1-6,50,36,26,49,33,26,98,90,58,30.18,29.88,11,2,0,0.00
2013-1-7,39,39,39,39,39,39,98,98,98,29.91,29.91,0,0,0,0.00
2013-1-8,39,39,39,39,39,39,98,98,98,29.91,29.91,0,0,0,0.00
2013-1-9,39,39,39,39,39,39,98,98,98,29.91,29.91,0,0,0,0.00
2013-1-27,32,26,21,5,-2,-9,48,28,21,30.42,30.31,14,7,0,0.02
2013-1-28,41,27,20,40,17,0,98,71,27,30.41,29.96,7,2,0,0.00
2013-1-29,36,32,26,36,31,26,98,98,98,30.14,29.96,6,2,0,0.15
2013-1-30,75,52,35,74,52,35,98,98,98,30.10,29.41,15,5,0,0.35
2013-1-31,66,50,31,65,41,16,98,75,39,29.55,28.90,32,10,0,3.73
2013-2-1,34,29,23,26,10,4,88,45,30,30.05,29.55,18,9,0,0.09
2013-2-2,32,25,18,29,10,3,88,52,36,30.22,30.02,14,5,0,0.00
2013-2-3,27,25,23,26,24,15,98,95,59,30.03,29.72,8,5,0,0.00
2013-2-5,33,28,25,33,21,11,98,77,48,30.00,29.91,7,2,0,0.00
2013-2-6,40,31,26,36,22,7,98,73,40,30.27,29.90,14,5,0,0.07
2013-2-7,30,25,18,28,4,-2,98,42,28,30.51,30.27,14,5,0,0.00
2013-2-8,36,31,18,36,30,18,98,98,98,30.46,29.57,33,10,0,3.52
2013-2-9,22,18,14,22,18,13,98,98,92,30.15,29.53,25,14,0,1.57
2013-2-10,51,26,12,50,13,-16,98,68,8,30.36,30.16,15,4,0,0.09
2013-2-11,52,35,20,51,35,20,98,98,98,30.32,29.56,4,1,0,0.54
2013-2-12,47,40,34,42,37,31,98,89,59,29.84,29.56,19,6,0,0.25
2013-2-13,46,37,29,41,33,27,98,87,51,29.84,29.65,7,2,0,0.00
2013-2-14,35,34,33,35,34,33,98,98,98,29.70,29.67,4,2,0,0.00
2013-2-15,51,42,35,48,41,35,98,97,76,29.92,29.86,6,2,0,0.00
2013-2-16,40,36,31,39,34,23,98,92,65,30.00,29.68,12,5,0,0.02
2013-2-17,30,22,16,30,15,1,98,77,45,29.67,29.33,22,11,0,1.31
2013-2-18,33,24,14,19,2,-7,70,40,18,30.12,29.63,23,10,0,0.39
2013-2-19,50,39,23,49,30,4,98,72,42,30.14,29.54,8,3,0,0.52
2013-2-20,44,34,27,44,25,12,98,72,40,29.74,29.49,19,8,0,0.19
2013-2-21,33,28,25,26,18,11,98,70,44,30.13,29.73,20,9,0,0.04
2013-2-22,42,33,25,42,29,23,98,88,50,30.36,30.14,13,5,0,0.00
2013-2-23,43,37,32,43,36,31,98,98,98,30.31,29.90,7,2,0,0.18
2013-2-24,39,36,32,38,35,31,98,98,98,29.89,29.66,15,7,0,0.71
2013-2-25,41,38,35,40,38,34,98,98,98,30.21,30.12,6,1,0,0.00
2013-2-26,46,39,30,43,37,29,98,94,62,30.31,30.13,10,3,0,0.00
2013-2-27,42,41,39,42,40,38,98,98,98,30.13,29.51,18,9,0,3.23
2013-2-28,48,40,35,48,40,34,98,98,98,29.61,29.48,8,2,0,0.00
2013-3-1,42,39,35,41,38,35,98,98,92,29.64,29.49,11,5,0,0.00
2013-3-2,46,38,32,46,37,32,98,94,69,29.63,29.58,10,5,0,0.00
2013-3-3,43,37,33,43,36,33,98,98,98,29.60,29.52,9,5,0,0.00
2013-3-4,42,35,30,36,31,25,98,86,54,29.70,29.54,20,10,0,0.02
2013-3-5,45,38,32,44,36,31,98,95,70,30.05,29.71,18,6,0,0.00
2013-3-6,41,38,35,40,37,34,98,98,98,30.10,30.02,24,11,0,1.20
2013-3-7,42,35,31,42,35,31,98,98,98,30.05,29.97,24,13,0,0.74
2013-3-8,65,37,32,61,33,23,98,88,52,30.12,29.91,28,10,0,0.76
2013-3-9,46,37,30,38,29,22,98,73,53,30.34,30.12,15,5,0,0.00
2013-3-10,44,36,29,43,35,28,98,97,86,30.40,30.30,7,2,0,0.00
2013-3-11,56,44,36,50,41,36,98,91,62,30.31,30.13,9,4,0,0.00
2013-3-12,59,52,42,58,52,42,98,98,98,30.14,29.69,8,3,0,0.49
2013-3-13,55,46,38,55,35,20,98,70,30,29.75,29.65,15,6,0,0.00
2013-3-14,38,37,35,25,23,22,67,57,52,29.73,29.72,6,3,0,0.00
2013-3-16,45,38,34,30,12,4,66,34,18,29.83,29.73,9,3,0,0.00
2013-3-17,39,32,25,30,10,0,98,43,20,30.29,29.83,20,6,0,0.01
2013-3-18,40,30,19,34,12,-1,98,49,25,30.43,30.23,10,4,0,0.00
2013-3-19,40,35,29,39,35,28,98,98,98,30.22,29.56,18,9,0,1.37
2013-3-20,42,33,25,35,26,20,98,79,44,29.78,29.65,14,5,0,0.11
2013-3-21,40,32,26,39,28,18,98,85,49,29.78,29.57,9,2,0,0.00
2013-3-22,31,31,30,30,30,30,98,98,98,29.58,29.57,6,4,0,0.00
2013-3-25,47,40,33,46,38,33,98,95,69,29.70,29.48,17,8,0,0.12
2013-3-26,53,42,35,39,28,19,98,63,27,29.74,29.49,14,6,0,0.00
2013-3-27,54,45,33,42,26,23,98,51,30,29.83,29.69,17,7,0,0.00
2013-3-28,44,42,38,44,42,38,98,98,98,29.90,29.83,13,9,0,0.00
2013-3-29,44,44,44,44,44,44,98,98,98,29.90,29.90,10,10,0,0.00
2013-3-30,44,44,44,44,44,44,98,98,98,29.90,29.90,10,10,0,0.00
2013-3-31,44,44,44,44,44,44,98,98,98,29.90,29.90,10,10,0,0.00
2013-4-1,44,44,44,44,44,44,98,98,98,29.90,29.90,10,10,0,0.00
2013-4-2,44,44,44,44,44,44,98,98,98,29.90,29.90,10,10,0,0.00
2013-4-3,44,44,44,44,44,44,98,98,98,29.90,29.90,10,10,0,0.00
2013-4-4,44,44,44,44,44,44,98,98,98,29.90,29.90,10,10,0,0.00
2013-4-5,44,44,44,44,44,44,98,98,98,29.90,29.90,10,10,0,0.00
2013-4-6,44,42,33,44,30,-2,99,72,15,30.31,29.90,18,8,0,0.03
2013-4-7,56,43,-17,48,32,-18,98,70,28,30.31,29.97,17,4,0,0.09
2013-4-8,66,53,45,52,44,37,98,75,34,30.07,29.91,11,4,0,0.00
2013-4-9,74,57,48,65,50,44,98,82,38,30.05,29.81,17,5,0,0.13
2013-4-10,49,48,48,48,48,47,98,98,98,29.95,29.92,6,2,0,0.00
2013-4-21,54,48,39,42,29,17,98,53,23,30.65,30.50,12,4,0,0.00
2013-4-22,52,43,34,46,37,25,98,82,36,30.75,30.58,17,6,0,0.07
2013-4-23,44,42,40,43,42,39,98,98,98,30.58,30.09,18,9,0,0.05
2013-4-24,75,56,44,66,50,43,98,82,40,30.09,29.74,16,7,0,0.00
2013-4-25,69,57,46,56,40,2,98,64,8,30.23,29.79,14,6,0,0.04
2013-4-26,58,51,43,50,40,31,98,69,42,30.40,30.23,13,4,0,0.00
2013-4-27,65,54,38,56,39,30,98,64,30,30.39,30.26,8,3,0,0.00
2013-4-28,69,57,40,57,39,28,98,59,28,30.31,30.18,11,3,0,0.00
2013-4-29,73,60,48,62,40,-2,98,58,8,30.25,30.15,10,3,0,0.00
2013-4-30,69,55,44,69,39,6,99,62,8,30.34,30.22,7,2,0,0.00
2013-5-1,69,57,39,56,38,24,98,59,19,30.45,30.35,9,2,0,0.00
2013-5-2,78,57,43,62,46,32,98,77,21,30.46,30.33,21,4,0,0.10
2013-5-3,61,51,44,58,49,44,98,93,61,30.50,30.35,12,6,0,0.00
2013-5-4,58,50,39,56,46,39,98,88,57,30.34,30.29,11,4,0,0.00
2013-5-5,60,50,39,54,43,38,98,81,48,30.30,30.23,10,3,0,0.00
2013-5-6,65,52,39,62,51,39,98,97,71,30.26,30.13,9,2,0,0.00
2013-5-7,77,64,45,67,56,44,98,79,46,30.15,30.05,10,3,0,0.00
2013-5-8,72,62,55,71,62,55,98,98,98,30.17,30.02,9,4,0,0.11
2013-5-9,69,61,58,68,60,57,98,98,98,30.02,29.85,10,2,0,1.48
2013-5-10,81,67,58,72,62,57,98,88,45,29.92,29.85,11,3,0,0.01
2013-5-11,75,66,60,74,65,60,98,98,98,29.87,29.65,12,5,0,0.06
2013-5-12,76,63,52,65,54,30,98,77,36,29.77,29.51,14,4,0,0.13
2013-5-13,62,53,45,34,30,23,64,42,23,30.00,29.78,13,5,0,0.01
2013-5-14,62,52,42,39,31,26,89,48,27,30.02,29.93,13,6,0,0.00
2013-5-15,71,56,38,59,43,29,98,69,24,30.02,29.64,10,4,0,0.01
2013-5-16,80,64,50,60,43,-16,98,59,2,29.75,29.60,12,4,0,0.01
2013-5-17,71,61,54,56,44,35,98,55,28,30.18,29.77,17,6,0,0.01
2013-5-18,74,62,48,56,48,35,98,64,25,30.28,30.18,8,3,0,0.00
2013-5-19,74,59,51,62,56,50,98,91,47,30.32,30.20,11,3,0,0.15
2013-5-20,84,69,58,75,64,57,98,87,51,30.19,29.85,9,3,0,0.07
2013-5-21,78,62,53,77,62,52,98,98,86,29.97,29.83,14,5,0,0.05
2013-5-22,70,58,52,69,58,52,98,98,98,30.02,29.86,12,4,0,0.17
2013-5-23,79,66,56,78,66,56,98,98,98,29.89,29.76,17,4,0,0.18
2013-5-24,73,65,51,72,64,51,98,98,98,29.78,29.60,9,4,0,1.38
2013-5-25,54,50,43,53,50,43,98,98,98,29.77,29.65,13,7,0,0.40
2013-5-26,60,50,41,50,42,39,98,77,47,30.06,29.67,23,8,0,0.27
2013-5-27,76,61,42,55,40,26,98,57,16,30.13,30.02,14,4,0,0.00
2013-5-28,74,62,45,63,50,39,98,72,32,30.20,30.12,10,3,0,0.00
2013-5-29,74,65,60,74,64,60,98,98,98,30.15,29.94,7,2,0,1.22
2013-5-30,93,79,65,80,69,64,98,77,43,30.03,29.94,11,4,0,0.01
2013-5-31,99,85,69,79,68,60,98,63,28,30.03,29.86,10,4,0,0.00
2013-6-1,96,84,70,77,68,61,98,64,32,29.91,29.79,11,5,0,0.00
2013-6-2,93,81,70,80,71,64,98,77,40,29.82,29.66,18,7,0,0.49
2013-6-3,82,72,65,78,68,45,98,90,48,29.80,29.70,9,4,0,0.41
2013-6-4,75,65,54,48,45,42,69,49,33,30.05,29.77,13,6,0,0.00
2013-6-5,79,66,53,56,48,42,98,56,28,30.16,30.05,10,4,0,0.00
2013-6-6,78,67,57,62,52,42,98,61,33,30.15,30.05,8,3,0,0.00
2013-6-7,61,58,56,60,57,55,98,98,98,30.08,29.79,13,5,0,3.71
2013-6-8,84,66,56,70,62,55,98,88,55,29.95,29.57,13,6,0,0.89
2013-6-9,84,71,59,68,59,53,98,71,37,30.11,29.96,12,4,0,0.00
2013-6-10,72,65,59,68,63,58,98,94,65,30.17,29.98,9,3,0,0.87
2013-6-11,72,63,58,71,62,58,98,98,98,29.98,29.53,12,5,0,1.85
2013-6-12,76,69,62,75,65,56,98,87,57,29.76,29.51,17,5,0,0.20
2013-6-13,71,61,53,64,58,53,98,91,54,29.77,29.63,8,2,0,0.86
2013-6-14,78,63,52,61,56,52,98,81,43,29.71,29.60,12,5,0,1.56
2013-6-15,84,71,58,62,48,32,98,51,16,29.88,29.71,13,4,0,0.00
2013-6-16,80,70,56,71,56,49,98,65,37,29.89,29.65,11,4,0,0.00
2013-6-17,90,73,62,71,64,54,98,79,30,29.86,29.72,15,4,0,0.59
2013-6-18,78,65,60,71,63,59,98,94,65,29.90,29.83,9,3,0,0.85
2013-6-19,60,59,59,59,58,58,98,98,98,29.88,29.87,5,4,0,0.04
2013-6-20,59,59,59,58,58,58,98,98,98,29.87,29.87,4,4,0,0.00
2013-6-21,59,59,59,58,58,58,98,98,98,29.87,29.87,4,4,0,0.00
2013-6-22,59,59,59,58,58,58,98,98,98,29.87,29.87,4,4,0,0.00
2013-6-23,59,59,59,58,58,58,98,98,98,29.87,29.87,4,4,0,0.00
2013-6-24,97,69,59,74,63,58,98,87,42,29.92,29.80,14,4,0,0.19
2013-6-25,95,83,71,78,71,65,98,71,37,29.86,29.66,19,5,0,0.02
2013-6-26,87,78,70,81,74,68,98,91,55,29.80,29.66,8,3,0,0.07
2013-6-27,72,67,63,72,66,62,98,98,98,29.82,29.71,7,4,0,0.05
2013-6-28,65,63,63,64,62,62,98,98,98,29.72,29.60,8,6,0,0.50
2013-6-29,74,73,73,74,73,72,98,98,98,29.67,29.63,5,3,0,0.00
2013-6-30,90,79,71,81,75,71,98,89,63,29.88,29.67,13,4,0,0.00
2013-7-1,86,78,73,85,77,72,98,98,93,30.03,29.88,9,3,0,0.15
2013-7-2,86,76,64,84,75,63,98,98,87,30.16,30.02,11,5,0,0.00
2013-7-3,93,79,63,83,73,62,98,85,54,30.15,30.07,13,5,0,0.01
2013-7-4,97,86,74,84,77,73,98,79,47,30.14,30.02,11,5,0,0.00
2013-7-5,98,88,78,84,78,72,98,75,45,30.10,29.97,10,5,0,0.00
2013-7-6,82,80,80,81,80,79,98,98,98,30.01,30.00,5,0,0,0.00
2013-7-7,80,80,80,79,79,79,98,98,98,30.01,30.01,0,0,0,0.00
2013-7-8,86,79,70,84,78,69,98,95,77,30.01,29.88,11,2,0,0.01
2013-7-9,76,70,66,76,70,65,98,98,98,30.06,30.00,7,3,0,0.00
2013-7-10,89,76,68,84,74,67,98,96,73,30.03,29.73,11,4,0,0.02
2013-7-11,84,79,74,83,77,73,98,94,71,29.86,29.71,8,3,0,0.14
2013-7-12,79,72,68,73,66,58,98,82,53,30.14,29.86,13,6,0,0.00
2013-7-13,80,72,67,79,71,66,98,98,95,30.26,30.15,6,3,0,0.01
2013-7-14,93,81,70,84,74,69,98,82,46,30.25,30.14,12,2,0,0.00
2013-7-15,94,84,73,84,75,69,98,76,48,30.14,30.03,9,2,0,0.00
2013-7-16,96,84,74,79,73,66,98,74,39,30.11,30.05,9,4,0,0.00
2013-7-17,99,87,74,83,74,65,98,70,34,30.12,29.93,9,3,0,0.04
2013-7-18,95,84,79,85,77,68,98,81,51,29.95,29.88,11,4,0,0.00
2013-7-19,101,89,78,88,78,69,98,74,37,29.88,29.64,16,6,0,0.10
2013-7-20,97,88,80,86,77,65,98,74,41,29.73,29.57,11,5,0,0.00
2013-7-21,83,77,71,74,67,62,98,74,52,29.93,29.74,10,4,0,0.06
2013-7-22,83,75,69,79,72,53,98,94,48,29.96,29.84,9,3,0,0.00
2013-7-23,83,74,70,82,74,70,98,98,98,29.83,29.48,8,2,0,1.55
2013-7-24,88,79,68,81,70,58,98,76,48,29.90,29.52,11,4,0,0.00
2013-7-25,68,62,60,64,58,51,98,87,65,30.06,29.91,16,6,0,0.67
2013-7-26,61,61,61,60,60,60,98,98,98,30.05,30.05,4,4,0,0.00
2013-7-27,61,61,61,60,60,60,98,98,98,30.05,30.05,4,4,0,0.00
2013-7-28,61,61,61,60,60,60,98,98,98,30.05,30.05,4,4,0,0.00
2013-7-29,61,61,61,60,60,60,98,98,98,30.05,30.05,4,4,0,0.00
2013-7-30,61,61,61,60,60,60,98,98,98,30.05,30.05,4,4,0,0.00
2013-7-31,61,61,61,60,60,60,98,98,98,30.05,30.05,4,4,0,0.00
2013-8-1,61,61,61,60,60,60,98,98,98,30.05,30.05,4,4,0,0.00
2013-8-2,61,61,61,60,60,60,98,98,98,30.05,30.05,4,4,0,0.00
2013-8-3,61,61,61,60,60,60,98,98,98,30.05,30.05,4,4,0,0.00
2013-8-4,61,61,61,60,60,60,98,98,98,30.05,30.05,4,4,0,0.00
2013-8-5,61,61,61,60,60,60,98,98,98,30.05,30.05,4,4,0,0.00
2013-8-6,61,61,61,60,60,60,98,98,98,30.05,30.05,4,4,0,0.00
2013-8-7,61,61,61,60,60,60,98,98,98,30.05,30.05,4,4,0,0.00
2013-8-8,61,61,61,60,60,60,98,98,98,30.05,30.05,4,4,0,0.00
2013-8-9,61,61,61,60,60,60,98,98,98,30.05,30.05,4,4,0,0.00
2013-8-10,61,61,61,60,60,60,98,98,98,30.05,30.05,4,4,0,0.00
2013-8-11,61,61,61,60,60,60,98,98,98,30.05,30.05,4,4,0,0.00
2013-8-12,61,61,61,60,60,60,98,98,98,30.05,30.05,4,4,0,0.00
2013-8-13,61,61,61,60,60,60,98,98,98,30.05,30.05,4,4,0,0.00
2013-8-14,61,61,61,60,60,60,98,98,98,30.05,30.05,4,4,0,0.00
2013-8-15,61,61,61,60,60,60,98,98,98,30.05,30.05,4,4,0,0.00
2013-8-16,61,61,61,60,60,60,98,98,98,30.05,30.05,4,4,0,0.00
2013-8-17,61,61,61,60,60,60,98,98,98,30.05,30.05,4,4,0,0.00
2013-8-18,61,61,61,60,60,60,98,98,98,30.05,30.05,4,4,0,0.00
2013-8-19,61,61,61,60,60,60,98,98,98,30.05,30.05,4,4,0,0.00
2013-8-20,61,61,61,60,60,60,98,98,98,30.05,30.05,4,4,0,0.00
2013-8-21,61,61,61,60,60,60,98,98,98,30.05,30.05,4,4,0,0.00
2013-8-22,61,61,61,60,60,60,98,98,98,30.05,30.05,4,4,0,0.00
2013-8-23,61,61,61,60,60,60,98,98,98,30.05,30.05,4,4,0,0.00
2013-8-24,61,61,61,60,60,60,98,98,98,30.05,30.05,4,4,0,0.00
2013-8-25,61,61,61,60,60,60,98,98,98,30.05,30.05,4,4,0,0.00
2013-8-26,61,61,61,60,60,60,98,98,98,30.05,30.05,4,4,0,0.00
2013-8-27,61,61,61,60,60,60,98,98,98,30.05,30.05,4,4,0,0.00
2013-8-28,61,61,61,60,60,60,98,98,98,30.05,30.05,4,4,0,0.00
2013-8-29,61,61,61,60,60,60,98,98,98,30.05,30.05,4,4,0,0.00
2013-8-30,61,61,61,60,60,60,98,98,98,30.05,30.05,4,4,0,0.00
2013-8-31,61,61,61,60,60,60,98,98,98,30.05,30.05,4,4,0,0.00
2013-9-1,61,61,61,60,60,60,98,98,98,30.05,30.05,4,4,0,0.00
2013-9-2,61,61,61,60,60,60,98,98,98,30.05,30.05,4,4,0,0.00
2013-9-3,61,61,61,60,60,60,98,98,98,30.05,30.05,4,4,0,0.00
2013-9-4,61,61,61,60,60,60,98,98,98,30.05,30.05,4,4,0,0.00
2013-9-5,61,61,61,60,60,60,98,98,98,30.05,30.05,4,4,0,0.00
2013-9-6,61,61,61,60,60,60,98,98,98,30.05,30.05,4,4,0,0.00
2013-9-7,61,61,61,60,60,60,98,98,98,30.05,30.05,4,4,0,0.00
2013-9-8,61,61,61,60,60,60,98,98,98,30.05,30.05,4,4,0,0.00
2013-9-9,72,63,59,60,56,44,98,83,36,30.14,30.05,10,4,0,0.00
2013-9-10,78,69,58,78,68,57,98,98,98,30.12,29.97,12,4,0,0.11
2013-9-11,99,83,70,91,77,70,98,85,47,30.01,29.87,11,4,0,0.00
2013-9-12,90,80,68,89,78,68,98,95,68,29.91,29.62,16,4,0,1.26
2013-9-13,84,71,61,80,69,61,98,96,68,29.70,29.50,11,3,0,0.17
2013-9-14,69,63,55,66,60,55,98,92,75,30.01,29.70,12,5,0,0.00
2013-9-15,76,63,50,64,54,48,98,78,42,30.12,30.01,10,3,0,0.00
2013-9-16,70,60,50,67,57,45,98,89,68,30.20,29.97,13,5,0,0.00
2013-9-17,68,54,41,53,45,40,98,74,44,30.39,30.21,13,4,0,0.00
2013-9-18,56,52,42,55,52,42,98,98,98,30.29,30.25,3,2,0,0.00
2013-9-19,56,56,56,55,55,55,98,98,98,30.27,30.27,3,3,0,0.00
2013-9-20,56,56,56,55,55,55,98,98,98,30.27,30.27,3,3,0,0.00
2013-9-21,56,56,56,55,55,55,98,98,98,30.27,30.27,3,3,0,0.00
2013-9-22,74,66,55,71,58,54,98,78,54,29.77,29.60,11,6,0,0.00
2013-9-23,65,55,47,54,49,46,98,81,59,29.95,29.78,14,6,0,0.00
2013-9-24,69,55,44,55,49,43,98,81,48,29.95,29.77,12,5,0,0.00
2013-9-25,68,57,46,59,54,46,98,90,66,29.94,29.84,10,3,0,0.00
2013-9-26,69,60,54,60,56,53,98,89,65,30.08,29.94,10,3,0,0.00
2013-9-27,68,60,52,64,58,52,98,92,68,30.22,30.08,10,4,0,0.00
2013-9-28,75,61,51,67,58,51,98,90,67,30.29,30.21,9,2,0,0.00
2013-9-29,69,56,48,63,53,47,98,91,59,30.23,30.07,8,2,0,0.00
2013-9-30,70,57,49,62,55,49,98,92,65,30.08,29.92,7,2,0,0.00
2013-10-1,80,62,49,66,56,48,98,83,44,29.92,29.79,13,2,0,0.00
2013-10-2,83,69,56,72,65,56,98,87,62,29.88,29.76,11,4,0,0.00
2013-10-3,81,68,55,64,56,45,98,72,29,30.03,29.89,8,2,0,0.00
2013-10-4,71,62,52,68,61,52,98,97,78,30.04,29.98,6,2,0,0.01
2013-10-5,73,66,60,70,63,59,98,92,77,30.07,30.00,5,2,0,0.00
2013-10-6,69,69,69,65,65,65,85,85,85,30.02,30.02,3,3,0,0.00
2013-10-7,69,69,69,65,65,65,85,85,85,30.02,30.02,3,3,0,0.00
2013-10-8,69,66,50,65,62,49,98,86,70,30.33,30.02,3,2,0,0.00
2013-10-9,62,57,45,58,52,45,98,85,74,30.43,30.33,11,4,0,0.00
2013-10-10,62,62,62,54,54,54,74,74,74,30.39,30.39,5,5,0,0.00
2013-10-11,62,61,54,58,54,54,98,79,74,30.39,30.08,5,4,0,0.00
2013-10-12,62,56,49,61,55,49,98,98,98,30.35,30.10,12,4,0,0.00
2013-10-13,62,53,43,60,52,42,98,97,85,30.41,30.34,9,4,0,0.00
2013-10-14,68,52,39,62,49,39,98,91,38,30.37,30.21,6,1,0,0.00
2013-10-15,69,59,49,68,58,48,98,97,91,30.22,30.14,7,2,0,0.00
2013-10-16,64,57,50,64,56,50,98,98,98,30.14,29.87,8,2,0,0.00
2013-10-17,76,64,54,75,63,54,98,98,98,29.87,29.67,7,3,0,0.00
2013-10-18,70,63,51,66,60,50,98,91,70,29.86,29.56,13,4,0,0.08
2013-10-19,69,57,43,59,53,42,98,87,54,29.93,29.71,8,3,0,0.17
2013-10-20,64,55,44,57,49,38,98,82,42,29.97,29.64,18,4,0,0.04
2013-10-21,70,63,52,57,53,48,98,73,47,30.07,29.95,8,3,0,0.00
2013-10-22,71,57,44,67,56,44,98,95,79,29.95,29.65,10,3,0,0.00
2013-10-23,57,48,39,54,45,38,98,88,68,29.76,29.54,6,2,0,0.00
2013-10-24,56,48,40,48,38,27,98,74,37,29.84,29.58,15,5,0,0.00
2013-10-25,52,43,35,47,38,34,98,85,55,30.11,29.84,11,3,0,0.00
2013-10-26,58,46,32,49,38,30,98,79,35,30.11,29.84,13,4,0,0.00
2013-10-27,56,50,42,51,44,38,98,84,55,30.02,29.77,14,5,0,0.02
2013-10-28,60,47,37,47,40,33,98,79,49,30.31,30.02,14,5,0,0.01
2013-10-29,52,40,32,44,37,30,98,89,43,30.41,30.31,7,2,0,0.00
2013-10-30,55,43,35,55,42,35,98,98,98,30.33,30.15,5,0,0,0.05
2013-10-31,65,52,35,64,51,35,98,98,98,30.21,29.75,12,2,0,0.05
2013-11-1,72,66,60,72,65,59,98,98,98,29.74,29.40,15,7,0,0.90
2013-11-2,70,58,49,60,54,48,98,88,51,29.68,29.54,10,2,0,0.00
2013-11-3,52,42,32,52,38,22,98,86,54,30.38,29.67,11,6,0,0.06
2013-11-4,45,35,28,43,28,19,98,81,38,30.67,30.39,11,4,0,0.00
2013-11-5,52,40,28,47,38,28,98,91,59,30.69,30.48,7,2,0,0.00
2013-11-6,63,53,42,60,51,42,98,95,78,30.48,30.00,10,3,0,0.00
2013-11-7,68,55,41,67,54,40,98,98,98,30.00,29.63,14,5,0,0.52
2013-11-8,50,42,35,46,38,31,98,84,70,30.05,29.77,18,7,0,0.04
2013-11-9,47,41,32,46,34,27,98,80,47,30.17,30.01,11,4,0,0.01
2013-11-10,59,48,43,55,47,42,98,95,73,30.00,29.68,17,4,0,0.06
2013-11-11,54,47,40,44,38,29,98,75,39,30.06,29.80,15,6,0,0.01
2013-11-12,49,37,28,47,33,24,98,88,74,30.15,29.84,12,6,0,0.15
2013-11-13,38,30,25,27,22,14,98,73,40,30.25,30.13,14,5,0,0.00
2013-11-14,53,41,30,33,27,23,98,60,35,30.12,29.99,13,4,0,0.00
2013-11-15,63,48,37,50,27,1,98,50,8,30.16,30.06,10,3,0,0.00
2013-11-16,62,47,36,46,38,21,98,77,21,30.28,30.15,6,1,0,0.00
2013-11-17,58,48,34,57,48,34,98,98,98,30.27,29.81,7,1,0,0.07
2013-11-18,68,61,50,65,56,42,98,87,65,29.79,29.48,12,5,0,0.27
2013-11-19,50,40,11,42,29,-30,88,64,13,30.23,29.60,19,9,0,0.17
2013-11-20,42,34,28,39,21,14,98,61,31,30.59,30.24,13,5,0,0.00
2013-11-21,51,38,24,44,29,23,98,74,36,30.61,30.34,7,2,0,0.00
2013-11-22,48,46,42,47,45,41,98,98,98,30.34,29.77,5,2,0,0.31
2013-11-23,49,42,30,48,34,20,98,78,40,29.86,29.73,19,7,0,0.07
2013-11-24,30,25,20,26,6,-9,98,49,20,30.15,29.74,26,12,0,2.34
2013-11-25,35,26,17,25,4,-31,76,42,6,30.33,30.15,14,6,0,0.00
2013-11-26,49,39,32,48,32,24,98,79,58,30.29,30.01,9,3,0,0.13
2013-11-27,64,53,39,63,53,38,98,98,98,29.99,29.15,14,6,0,2.70
2013-11-28,38,32,25,38,24,8,98,75,35,30.40,29.38,18,8,0,0.25
2013-11-29,34,28,21,31,18,8,98,70,38,30.72,30.40,12,5,0,0.07
2013-11-30,43,26,16,43,24,14,98,92,74,30.77,30.54,7,3,0,0.00